Time;durP1;ratioP1;P1;durP2;ratioP2;P2;SDS_P1;SDS_P2;PMS_P1;PMS_P2;Temp;Humidity;BMP_temperature;BMP_pressure;BME280_temperature;BME280_humidity;BME280_pressure;Samples;Min_cycle;Max_cycle;Signal;HPM_P1;HPM_P2
2022/05/03 00:01:40;;;;;;;9.85;4.95;;;;;;;31.37;67.72;100813.03;4992093;28;70040;-37
2022/05/03 00:04:19;;;;;;;5.60;4.50;;;;;;;31.53;67.50;100814.31;5006676;28;66466;-37
2022/05/03 00:07:34;;;;;;;4.93;4.38;;;;;;;31.36;67.70;100809.50;5040587;28;70213;-37
2022/05/03 00:10:19;;;;;;;5.35;4.80;;;;;;;31.11;67.54;100768.88;4981086;28;67131;-38
2022/05/03 00:13:06;;;;;;;6.03;4.70;;;;;;;31.19;67.53;100777.78;5041617;28;69188;-37
2022/05/03 00:15:40;;;;;;;4.93;4.63;;;;;;;31.44;67.60;100816.50;5039058;28;65932;-37
2022/05/03 00:18:11;;;;;;;5.93;4.53;;;;;;;31.57;67.71;100848.91;5037485;28;69440;-38
2022/05/03 00:20:44;;;;;;;5.00;4.63;;;;;;;31.58;67.55;100849.72;5039740;28;66281;-37
2022/05/03 00:23:15;;;;;;;4.93;4.45;;;;;;;31.60;67.27;100847.63;5038442;28;69984;-38
2022/05/03 00:25:47;;;;;;;5.05;4.60;;;;;;;31.19;67.55;100802.16;5041363;28;67204;-38
2022/05/03 00:28:19;;;;;;;5.25;4.78;;;;;;;31.24;67.44;100788.78;5040767;28;70593;-38
2022/05/03 00:30:49;;;;;;;;;;;;;;;31.28;68.60;100855.84;5040805;28;66347;-38
2022/05/03 00:33:20;;;;;;;5.13;4.72;;;;;;;31.54;67.37;100848.53;5040048;28;69830;-37
2022/05/03 00:35:56;;;;;;;5.95;5.50;;;;;;;31.46;67.49;100844.22;5041163;28;66950;-37
2022/05/03 00:38:27;;;;;;;10.35;9.65;;;;;;;31.65;67.47;100874.03;5038842;28;70097;-37
2022/05/03 00:41:02;;;;;;;14.48;13.10;;;;;;;31.20;67.33;100812.75;5039622;28;66598;-45
2022/05/03 00:44:02;;;;;;;15.82;14.52;;;;;;;31.07;67.12;100827.28;5039078;28;69851;-38
2022/05/03 00:46:38;;;;;;;16.95;15.45;;;;;;;30.86;67.22;100751.84;5039358;28;66149;-38
2022/05/03 00:49:28;;;;;;;15.63;14.23;;;;;;;31.69;67.46;100888.81;5038932;28;68751;-38
2022/05/03 00:52:24;;;;;;;15.10;13.77;;;;;;;31.69;67.01;100896.97;5038803;28;65130;-37
2022/05/03 00:55:38;;;;;;;14.02;12.77;;;;;;;31.61;67.31;100898.06;5038856;28;69885;-37
2022/05/03 00:58:16;;;;;;;16.08;14.40;;;;;;;31.73;67.13;100911.72;5013607;28;66519;-38
2022/05/03 01:01:32;;;;;;;15.55;14.07;;;;;;;31.25;67.19;100855.47;5039532;28;69311;-38
2022/05/03 01:04:26;;;;;;;16.23;14.65;;;;;;;31.69;67.03;100915.94;5032609;28;66653;-37
2022/05/03 01:07:06;;;;;;;14.77;13.48;;;;;;;31.78;67.33;100920.00;5039539;28;69268;-37
2022/05/03 01:09:41;;;;;;;14.77;13.30;;;;;;;31.78;66.91;100920.81;5040391;28;66854;-37
2022/05/03 01:12:25;;;;;;;15.93;13.00;;;;;;;31.84;67.42;100932.66;5039137;28;69349;-37
2022/05/03 01:15:18;;;;;;;12.30;11.10;;;;;;;31.75;67.21;100934.84;5038785;28;65972;-37
2022/05/03 01:18:15;;;;;;;10.05;9.20;;;;;;;31.84;66.93;100932.66;5040675;28;70118;-38
2022/05/03 01:21:10;;;;;;;9.88;8.88;;;;;;;31.85;67.02;100942.47;5040466;28;67215;-37
2022/05/03 01:23:51;;;;;;;9.27;8.38;;;;;;;31.89;67.07;100954.53;5038419;28;69683;-38
2022/05/03 01:26:39;;;;;;;8.30;7.70;;;;;;;31.83;66.65;100945.41;5040048;28;65661;-38
2022/05/03 01:29:10;;;;;;;8.27;7.32;;;;;;;31.88;67.13;100958.28;5038520;28;70350;-39
2022/05/03 01:31:40;;;;;;;6.35;5.85;;;;;;;31.85;67.20;100947.91;5041758;28;65350;-38
2022/05/03 01:34:12;;;;;;;6.07;5.47;;;;;;;31.86;66.65;100965.00;5042194;28;69797;-38
2022/05/03 01:36:59;;;;;;;5.80;5.32;;;;;;;31.64;66.80;100929.34;5040276;28;64652;-38
2022/05/03 01:40:08;;;;;;;4.85;4.53;;;;;;;31.85;66.67;100969.59;5042215;28;68647;-37
2022/05/03 01:43:02;;;;;;;4.97;4.60;;;;;;;31.86;66.76;100987.53;5042054;28;66867;-38
2022/05/03 01:45:56;;;;;;;4.35;4.05;;;;;;;31.95;67.00;100997.06;5040499;28;69580;-38
2022/05/03 01:48:26;;;;;;;4.80;4.40;;;;;;;31.96;66.70;100995.19;5041204;28;65639;-37
2022/05/03 01:51:13;;;;;;;4.63;4.32;;;;;;;31.08;66.71;100847.06;5042911;28;70234;-38
2022/05/03 01:53:46;;;;;;;4.38;4.07;;;;;;;31.59;66.44;100916.44;5041442;28;65314;-37
2022/05/03 01:56:29;;;;;;;6.22;4.38;;;;;;;31.98;66.36;100980.34;5043278;28;70256;-39
2022/05/03 01:59:05;;;;;;;9.68;3.92;;;;;;;32.04;66.74;100984.88;5041823;28;65682;-37
2022/05/03 02:01:41;;;;;;;5.90;3.85;;;;;;;32.09;66.87;100991.47;5041622;28;69304;-39
2022/05/03 02:04:36;;;;;;;9.57;4.03;;;;;;;32.08;66.30;100978.97;5041332;28;66805;-38
2022/05/03 02:07:12;;;;;;;5.55;4.18;;;;;;;31.63;66.22;100906.00;5041909;28;69043;-37
2022/05/03 02:10:04;;;;;;;8.48;4.05;;;;;;;32.07;66.38;100963.75;5042739;28;43147;-38
2022/05/03 02:12:35;;;;;;;3.95;3.50;;;;;;;32.09;66.50;100965.16;5042905;28;69631;-38
2022/05/03 02:15:13;;;;;;;4.90;3.70;;;;;;;31.81;66.67;100911.41;5041611;28;66501;-40
2022/05/03 02:17:53;;;;;;;4.65;3.15;;;;;;;32.16;66.45;100970.53;5042691;28;69558;-37
2022/05/03 02:20:29;;;;;;;8.07;3.38;;;;;;;32.21;66.14;100962.56;5040898;28;65714;-38
2022/05/03 02:23:13;;;;;;;3.60;3.30;;;;;;;31.60;66.56;100870.13;5023151;28;69759;-38
2022/05/03 02:25:46;;;;;;;3.70;3.40;;;;;;;32.22;66.88;100958.78;5032033;28;65768;-38
2022/05/03 02:28:26;;;;;;;5.82;3.28;;;;;;;32.15;66.67;100947.16;5043017;28;70905;-37
2022/05/03 02:31:02;;;;;;;5.63;3.40;;;;;;;32.18;66.11;100942.13;5042217;28;66183;-39
2022/05/03 02:33:43;;;;;;;6.43;3.45;;;;;;;32.29;66.32;100948.66;5042002;28;69451;-38
2022/05/03 02:36:22;;;;;;;8.13;4.10;;;;;;;31.88;66.13;100887.75;5041113;28;66824;-38
2022/05/03 02:39:06;;;;;;;9.23;3.92;;;;;;;32.34;66.59;100945.25;5042877;28;69330;-38
2022/05/03 02:41:39;;;;;;;7.80;4.07;;;;;;;32.29;66.64;100932.38;5031039;28;66276;-38
2022/05/03 02:44:13;;;;;;;11.07;4.22;;;;;;;31.92;66.50;100866.47;5032079;28;69843;-38
2022/05/03 02:47:09;;;;;;;6.95;4.40;;;;;;;32.31;66.49;100930.25;5021447;28;65750;-38
2022/05/03 02:49:39;;;;;;;6.30;3.92;;;;;;;32.38;66.57;100931.00;5019416;28;69273;-38
2022/05/03 02:52:14;;;;;;;14.73;3.97;;;;;;;32.42;66.32;100942.22;5022155;28;65296;-39
2022/05/03 02:54:56;;;;;;;9.43;3.72;;;;;;;32.43;66.38;100917.56;5018603;28;69492;-37
2022/05/03 02:57:47;;;;;;;;;;;;;;;32.10;67.11;100911.75;5022500;28;66087;-38
2022/05/03 03:03:37;;;;;;;3.85;3.10;;;;;;;32.35;66.22;100909.75;5020819;28;66247;-38
2022/05/03 03:06:20;;;;;;;3.67;3.35;;;;;;;32.39;66.35;100897.34;5041155;28;69128;-38
2022/05/03 03:08:54;;;;;;;7.45;3.20;;;;;;;31.68;66.01;100776.81;5042095;28;66904;-37
2022/05/03 03:11:49;;;;;;;3.67;3.33;;;;;;;32.50;66.01;100895.78;5042004;28;69902;-37
2022/05/03 03:14:29;;;;;;;3.00;2.70;;;;;;;32.10;66.11;100838.50;5039478;28;66254;-37
2022/05/03 03:17:08;;;;;;;6.95;2.97;;;;;;;31.71;65.94;100768.22;5041713;28;70007;-37
2022/05/03 03:19:38;;;;;;;3.75;2.85;;;;;;;32.51;66.10;100896.59;5041780;28;66249;-37
2022/05/03 03:22:13;;;;;;;7.38;3.40;;;;;;;32.34;65.87;100861.09;5041108;28;70463;-38
2022/05/03 03:24:45;;;;;;;5.07;3.22;;;;;;;32.32;66.13;100855.91;5040540;28;65847;-37
2022/05/03 03:27:19;;;;;;;3.67;3.00;;;;;;;32.39;66.25;100862.06;5041645;28;69654;-37
2022/05/03 03:29:55;;;;;;;10.60;3.65;;;;;;;32.54;66.02;100888.84;5041176;28;66638;-37
2022/05/03 03:32:26;;;;;;;6.30;3.25;;;;;;;32.08;65.97;100794.47;5039878;28;69365;-38
2022/05/03 03:34:58;;;;;;;5.35;2.95;;;;;;;32.44;66.04;100851.34;5039494;28;65622;-37
2022/05/03 03:37:34;;;;;;;2.70;2.47;;;;;;;32.58;65.97;100875.63;5039656;28;70191;-37
2022/05/03 03:40:06;;;;;;;6.95;3.25;;;;;;;32.45;66.02;100847.56;5039828;28;66218;-37
2022/05/03 03:42:37;;;;;;;3.83;2.63;;;;;;;32.43;65.79;100841.56;5040521;28;70339;-37
2022/05/03 03:45:10;;;;;;;4.97;2.80;;;;;;;32.52;65.51;100854.81;5040504;28;65426;-37
2022/05/03 03:47:43;;;;;;;2.90;2.70;;;;;;;32.50;65.77;100855.03;5023616;28;69863;-37
2022/05/03 03:50:14;;;;;;;3.55;3.10;;;;;;;32.59;65.46;100860.97;5040878;28;65556;-38
2022/05/03 03:52:46;;;;;;;7.40;3.20;;;;;;;32.58;65.29;100865.56;5040544;28;69598;-37
2022/05/03 03:55:17;;;;;;;4.78;3.25;;;;;;;32.65;65.36;100870.88;5041793;28;66429;-38
2022/05/03 03:57:49;;;;;;;4.10;3.65;;;;;;;32.56;65.22;100847.84;5040091;28;70182;-38
2022/05/03 04:00:19;;;;;;;;;;;;;;;32.32;66.03;100850.47;5041137;28;66737;-38
2022/05/03 04:02:50;;;;;;;5.78;3.83;;;;;;;32.66;65.34;100856.28;5041737;28;70132;-38
2022/05/03 04:05:22;;;;;;;6.47;4.20;;;;;;;32.22;65.14;100768.78;5039722;28;66420;-38
2022/05/03 04:07:52;;;;;;;15.30;4.95;;;;;;;32.65;65.28;100833.72;5037687;28;69280;-38
2022/05/03 04:10:23;;;;;;;17.80;4.95;;;;;;;32.62;65.46;100833.34;5040025;28;66611;-37
2022/05/03 04:12:53;;;;;;;6.63;4.38;;;;;;;32.74;65.00;100842.34;5040541;28;69321;-38
2022/05/03 04:15:24;;;;;;;11.65;4.35;;;;;;;32.75;65.11;100841.28;5056493;28;66607;-37
2022/05/03 04:17:55;;;;;;;9.73;4.75;;;;;;;32.67;65.04;100822.59;5040098;28;69885;-38
2022/05/03 04:20:25;;;;;;;10.38;4.50;;;;;;;32.54;64.75;100799.22;5039809;28;65341;-38
2022/05/03 04:22:55;;;;;;;6.63;4.25;;;;;;;32.66;64.91;100807.38;5041044;28;70205;-38
2022/05/03 04:25:25;;;;;;;6.03;4.60;;;;;;;32.81;65.02;100820.50;5040824;28;64591;-37
2022/05/03 04:27:55;;;;;;;9.25;4.25;;;;;;;32.67;64.52;100790.00;5041251;28;70257;-37
2022/05/03 04:30:25;;;;;;;9.77;4.25;;;;;;;32.83;64.71;100807.50;5056246;28;65460;-37
2022/05/03 04:32:56;;;;;;;4.88;3.45;;;;;;;32.84;64.64;100803.72;5039129;28;69432;-38
2022/05/03 04:35:26;;;;;;;7.82;3.92;;;;;;;32.80;64.54;100787.09;5039097;28;66244;-38
2022/05/03 04:37:56;;;;;;;7.82;4.05;;;;;;;32.83;64.57;100786.59;5025747;28;70082;-37
2022/05/03 04:40:26;;;;;;;5.53;3.88;;;;;;;32.79;64.59;100780.00;5020375;28;65644;-37
2022/05/03 04:42:56;;;;;;;5.00;4.20;;;;;;;32.89;64.52;100785.66;5020781;28;69209;-39
2022/05/03 04:45:27;;;;;;;6.75;5.25;;;;;;;32.85;64.32;100778.22;5020775;28;66009;-37
2022/05/03 04:47:57;;;;;;;5.63;4.75;;;;;;;32.92;64.18;100785.19;5035299;28;69928;-39
2022/05/03 04:50:27;;;;;;;6.15;4.13;;;;;;;32.93;64.48;100781.41;5020497;28;65888;-37
2022/05/03 04:52:57;;;;;;;5.15;4.32;;;;;;;32.82;64.50;100754.22;5020592;28;70190;-37
2022/05/03 04:55:28;;;;;;;5.18;4.10;;;;;;;32.85;64.25;100745.63;5028677;28;65285;-37
2022/05/03 04:57:58;;;;;;;7.97;4.60;;;;;;;32.96;64.55;100757.53;5040794;28;69428;-37
2022/05/03 05:00:34;;;;;;;7.07;4.63;;;;;;;32.97;64.59;100748.34;5040932;28;65657;-37
2022/05/03 05:03:04;;;;;;;;;;;;;;;32.64;65.06;100734.28;5039870;28;70165;-37
2022/05/03 05:05:34;;;;;;;4.75;4.20;;;;;;;32.91;64.79;100722.94;5024547;28;66624;-39
2022/05/03 05:08:06;;;;;;;8.27;4.18;;;;;;;32.78;64.43;100702.28;5029931;28;69200;-37
2022/05/03 05:10:36;;;;;;;8.75;5.15;;;;;;;32.87;65.01;100700.00;5022716;28;65537;-37
2022/05/03 05:13:06;;;;;;;6.32;4.43;;;;;;;32.89;65.05;100697.91;5023853;28;70036;-37
2022/05/03 05:15:38;;;;;;;7.30;4.03;;;;;;;33.00;65.17;100705.22;5024500;28;66090;-38
2022/05/03 05:18:08;;;;;;;7.05;3.90;;;;;;;32.96;64.97;100693.16;5027751;28;69840;-38
2022/05/03 05:20:39;;;;;;;10.45;4.47;;;;;;;33.04;65.02;100700.97;5043863;28;65325;-37
2022/05/03 05:23:09;;;;;;;4.63;4.10;;;;;;;33.02;65.00;100696.84;5043940;28;70016;-38
2022/05/03 05:25:50;;;;;;;4.65;4.00;;;;;;;33.06;64.88;100692.56;5041424;28;66361;-37
2022/05/03 05:28:22;;;;;;;4.45;3.72;;;;;;;33.08;64.92;100696.72;5043629;28;70943;-38
2022/05/03 05:30:52;;;;;;;5.60;4.10;;;;;;;33.07;64.93;100699.66;5042547;28;66217;-37
2022/05/03 05:33:23;;;;;;;4.65;4.18;;;;;;;33.12;65.13;100697.03;5043265;28;70364;-37
2022/05/03 05:35:53;;;;;;;5.40;3.57;;;;;;;33.11;64.79;100677.19;5043637;28;66039;-37
2022/05/03 05:38:23;;;;;;;6.70;3.42;;;;;;;32.82;64.83;100626.56;5041678;28;70325;-37
2022/05/03 05:40:54;;;;;;;5.13;3.38;;;;;;;32.93;64.58;100639.28;5043569;28;65623;-37
2022/05/03 05:43:24;;;;;;;4.10;3.70;;;;;;;33.10;65.02;100661.97;5042943;28;70191;-38
2022/05/03 05:45:54;;;;;;;10.32;4.03;;;;;;;33.17;64.57;100661.00;5022378;28;66517;-37
2022/05/03 05:48:24;;;;;;;4.03;3.67;;;;;;;33.18;64.69;100652.59;5021530;28;70146;-37
2022/05/03 05:50:55;;;;;;;4.55;3.30;;;;;;;33.25;64.57;100658.72;5038194;28;65389;-40
2022/05/03 05:53:34;;;;;;;4.10;2.97;;;;;;;33.28;64.43;100647.38;5021579;28;70738;-37
2022/05/03 05:56:05;;;;;;;3.60;3.30;;;;;;;33.33;64.53;100647.47;5023222;28;65688;-38
2022/05/03 05:58:37;;;;;;;4.35;3.00;;;;;;;33.34;64.36;100640.94;5021560;28;69663;-37
2022/05/03 06:01:06;;;;;;;;;;;;;;;33.05;64.94;100631.97;5022431;28;66093;-38
2022/05/03 06:03:40;;;;;;;3.20;2.90;;;;;;;33.36;64.35;100625.22;5025758;28;69146;-39
2022/05/03 06:06:10;;;;;;;4.35;3.15;;;;;;;33.42;64.08;100625.31;5039835;28;65614;-37
2022/05/03 06:08:40;;;;;;;6.32;3.03;;;;;;;33.43;64.03;100616.91;5058214;28;70898;-36
2022/05/03 06:11:10;;;;;;;4.50;3.45;;;;;;;33.50;63.70;100616.78;5042342;28;66506;-38
2022/05/03 06:13:41;;;;;;;4.43;3.33;;;;;;;33.47;63.94;100609.94;5041529;28;70099;-38
2022/05/03 06:16:11;;;;;;;3.20;2.90;;;;;;;33.48;63.84;100605.31;5042083;28;65770;-38
2022/05/03 06:18:41;;;;;;;3.72;3.15;;;;;;;33.56;63.98;100608.47;5040182;28;68553;-38
2022/05/03 06:21:12;;;;;;;3.78;3.38;;;;;;;33.53;63.64;100589.13;5041311;28;65619;-38
2022/05/03 06:23:42;;;;;;;3.03;2.80;;;;;;;33.55;63.42;100587.00;5042441;28;70070;-38
2022/05/03 06:26:13;;;;;;;4.32;3.10;;;;;;;33.63;63.43;100581.16;5057564;28;65630;-38
2022/05/03 06:28:46;;;;;;;3.65;3.35;;;;;;;33.62;63.55;100574.03;5031850;28;69663;-38
2022/05/03 06:31:20;;;;;;;4.05;3.55;;;;;;;33.56;63.47;100550.56;5022580;28;66626;-39
2022/05/03 06:33:50;;;;;;;14.55;3.25;;;;;;;33.73;63.86;100551.38;5037380;28;69918;-39
2022/05/03 06:36:20;;;;;;;18.70;3.42;;;;;;;33.76;63.17;100545.44;5022775;28;66340;-38
2022/05/03 06:38:50;;;;;;;6.53;3.25;;;;;;;33.80;63.13;100546.59;5022829;28;69241;-38
2022/05/03 06:41:21;;;;;;;7.38;2.97;;;;;;;33.84;63.20;100546.09;5021984;28;66459;-36
2022/05/03 06:43:51;;;;;;;3.95;3.20;;;;;;;33.82;62.77;100530.00;5023220;28;70420;-38
2022/05/03 06:46:21;;;;;;;5.30;3.10;;;;;;;33.95;62.65;100548.72;5022834;28;66242;-37
2022/05/03 06:48:51;;;;;;;4.22;2.75;;;;;;;34.03;62.50;100556.47;5021746;28;69514;-37
2022/05/03 06:51:22;;;;;;;5.32;3.15;;;;;;;34.05;62.85;100541.84;5021544;28;66724;-37
2022/05/03 06:53:53;;;;;;;5.47;3.28;;;;;;;34.09;62.59;100535.63;5022173;28;69617;-38
2022/05/03 06:56:23;;;;;;;6.05;2.83;;;;;;;34.02;62.25;100521.34;5020800;28;66036;-37
2022/05/03 06:58:53;;;;;;;4.82;3.13;;;;;;;34.10;61.99;100523.69;5020999;28;70290;-37
2022/05/03 07:01:23;;;;;;;4.72;3.50;;;;;;;34.19;62.33;100538.50;5021810;28;65739;-38
2022/05/03 07:03:53;;;;;;;4.03;3.15;;;;;;;34.19;62.32;100515.91;5026369;28;70149;-38
2022/05/03 07:06:24;;;;;;;5.28;3.60;;;;;;;34.16;62.07;100503.63;5041615;28;65312;-38
2022/05/03 07:08:54;;;;;;;4.95;3.50;;;;;;;34.30;61.84;100509.50;5041521;28;70201;-39
2022/05/03 07:11:24;;;;;;;4.40;3.47;;;;;;;34.36;62.03;100513.13;5040860;28;66560;-38
2022/05/03 07:13:54;;;;;;;5.15;3.45;;;;;;;34.37;61.73;100512.03;5042261;28;70113;-38
2022/05/03 07:16:24;;;;;;;3.60;3.30;;;;;;;34.20;61.75;100472.06;5042237;28;66150;-38
2022/05/03 07:24:31;;;;;;;22.33;14.43;;;;;;;34.46;61.49;100494.16;5041582;28;69585;-38
2022/05/03 07:27:03;;;;;;;107.25;71.47;;;;;;;34.52;61.59;100503.22;5040766;28;65110;-38
2022/05/03 07:29:33;;;;;;;183.93;119.95;;;;;;;34.53;61.07;100502.97;5040950;28;69983;-37
2022/05/03 07:32:04;;;;;;;233.90;146.38;;;;;;;34.62;61.45;100509.66;5041307;28;64037;-38
2022/05/03 07:34:34;;;;;;;237.02;150.27;;;;;;;34.52;61.03;100498.63;5041030;28;70361;-38
2022/05/03 07:37:05;;;;;;;226.98;146.93;;;;;;;34.64;61.11;100501.22;5041218;28;66227;-37
2022/05/03 07:39:35;;;;;;;231.98;153.65;;;;;;;34.54;61.06;100468.38;5041566;28;70181;-37
2022/05/03 07:42:06;;;;;;;231.10;150.50;;;;;;;34.63;61.37;100480.50;5041602;28;66372;-38
2022/05/03 07:44:36;;;;;;;202.20;136.13;;;;;;;34.73;61.18;100482.53;5040545;28;69880;-38
2022/05/03 07:47:07;;;;;;;205.88;139.88;;;;;;;34.78;60.94;100479.84;5041742;28;65693;-39
2022/05/03 07:49:37;;;;;;;196.40;129.20;;;;;;;34.79;60.93;100471.41;5041343;28;69276;-38
2022/05/03 07:52:07;;;;;;;187.68;125.05;;;;;;;34.77;61.00;100450.94;5040786;28;65614;-39
2022/05/03 07:54:42;;;;;;;186.90;124.45;;;;;;;34.85;60.59;100453.22;5041240;28;70352;-37
2022/05/03 07:57:12;;;;;;;183.85;118.47;;;;;;;34.79;60.96;100427.00;5035805;28;66536;-38
2022/05/03 07:59:42;;;;;;;176.68;114.30;;;;;;;34.92;61.15;100435.56;5034540;28;69618;-38
2022/05/03 08:02:13;;;;;;;173.25;107.95;;;;;;;34.95;60.75;100433.41;5041941;28;65703;-38
2022/05/03 08:04:43;;;;;;;157.02;103.45;;;;;;;34.85;60.53;100415.06;5040915;28;70771;-37
2022/05/03 08:07:14;;;;;;;155.60;101.22;;;;;;;34.83;61.09;100412.63;5041020;28;65725;-38
2022/05/03 08:09:45;;;;;;;143.80;93.80;;;;;;;34.94;61.12;100418.97;5056632;28;68921;-37
2022/05/03 08:12:16;;;;;;;141.85;87.75;;;;;;;34.66;60.84;100384.66;5040171;28;65689;-37
2022/05/03 08:14:46;;;;;;;132.57;82.78;;;;;;;35.04;60.51;100440.84;5040280;28;69778;-39
2022/05/03 08:17:17;;;;;;;119.28;76.55;;;;;;;35.07;60.84;100439.53;5040212;28;65311;-40
2022/05/03 08:19:47;;;;;;;108.72;72.63;;;;;;;35.10;60.17;100444.47;5038327;28;69842;-39
2022/05/03 08:22:18;;;;;;;107.20;66.93;;;;;;;35.12;60.45;100450.50;5039321;28;65441;-38
2022/05/03 08:24:48;;;;;;;105.80;64.80;;;;;;;35.00;60.56;100437.00;5041301;28;69780;-39
2022/05/03 08:27:20;;;;;;;98.75;60.28;;;;;;;35.18;60.63;100448.63;5039634;28;66373;-39
2022/05/03 08:29:51;;;;;;;91.68;56.95;;;;;;;35.18;60.63;100444.00;5040426;28;69507;-38
2022/05/03 08:32:21;;;;;;;82.57;50.80;;;;;;;35.16;60.65;100448.06;5040990;28;66975;-38
2022/05/03 08:34:52;;;;;;;83.93;48.50;;;;;;;35.09;60.48;100432.75;5039226;28;69194;-38
2022/05/03 08:42:59;;;;;;;65.60;38.63;;;;;;;35.14;60.36;100461.97;5038340;28;66181;-38
2022/05/03 08:45:30;;;;;;;53.72;33.30;;;;;;;35.21;60.80;100468.00;5039503;28;71754;-37
2022/05/03 08:48:01;;;;;;;53.85;32.33;;;;;;;35.09;60.75;100449.09;5040004;28;66233;-38
2022/05/03 08:50:34;;;;;;;50.55;27.77;;;;;;;35.05;60.21;100445.25;5040681;28;70115;-37
2022/05/03 08:53:05;;;;;;;46.67;26.13;;;;;;;35.27;60.48;100487.97;5038560;28;66078;-37
2022/05/03 08:55:39;;;;;;;39.15;23.38;;;;;;;35.26;60.52;100491.78;5037939;28;69745;-38
2022/05/03 08:58:13;;;;;;;35.92;21.95;;;;;;;35.27;60.75;100487.97;5022661;28;65787;-37
2022/05/03 09:00:43;;;;;;;32.35;19.73;;;;;;;35.28;60.97;100492.34;5040573;28;69363;-37
2022/05/03 09:03:15;;;;;;;28.33;18.23;;;;;;;35.20;60.55;100481.91;5040767;28;65629;-37
2022/05/03 09:05:48;;;;;;;24.00;16.15;;;;;;;35.18;60.41;100493.06;5040239;28;69409;-38
2022/05/03 09:08:21;;;;;;;21.25;14.02;;;;;;;34.89;61.04;100435.28;5040569;28;65719;-38
2022/05/03 09:10:53;;;;;;;20.23;12.82;;;;;;;35.24;60.76;100488.47;5040897;28;70464;-38
2022/05/03 09:13:42;;;;;;;13.02;11.50;;;;;;;35.28;60.79;100486.91;5040574;28;64404;-37
2022/05/03 09:16:17;;;;;;;18.42;10.32;;;;;;;35.23;60.21;100490.41;5039949;28;70233;-38
2022/05/03 09:18:47;;;;;;;12.57;9.98;;;;;;;35.22;60.88;100474.31;5038958;28;66366;-37
2022/05/03 09:24:17;;;;;;;16.73;9.57;;;;;;;35.07;60.72;100456.72;5040764;28;65420;-37
2022/05/03 09:26:48;;;;;;;10.25;9.20;;;;;;;35.26;61.16;100484.41;5038759;28;69421;-37
2022/05/03 09:29:19;;;;;;;13.50;9.07;;;;;;;35.18;61.23;100489.53;5039346;28;65579;-37
2022/05/03 09:31:50;;;;;;;11.83;8.60;;;;;;;35.23;61.41;100497.75;5040103;28;69846;-37
2022/05/03 09:34:28;;;;;;;10.50;7.97;;;;;;;34.94;60.84;100448.97;5037971;28;66438;-38
2022/05/03 09:37:02;;;;;;;10.20;7.03;;;;;;;35.22;61.15;100502.41;5018116;28;70224;-37
2022/05/03 09:39:42;;;;;;;9.75;7.03;;;;;;;35.19;61.02;100496.63;5031415;28;66312;-38
2022/05/03 09:42:16;;;;;;;11.95;7.57;;;;;;;35.19;61.45;100512.97;5037950;28;70000;-38
2022/05/03 09:45:03;;;;;;;11.45;6.55;;;;;;;35.19;60.97;100507.53;5039111;28;66283;-37
2022/05/03 09:47:47;;;;;;;6.65;5.72;;;;;;;34.64;61.50;100433.94;5037088;28;68635;-38
2022/05/03 09:50:36;;;;;;;6.78;5.90;;;;;;;35.05;61.53;100524.28;5040467;28;65632;-38
2022/05/03 09:53:21;;;;;;;11.50;3.75;;;;;;;34.88;60.63;100510.75;5040638;28;70862;-38
2022/05/03 09:55:52;;;;;;;9.13;4.40;;;;;;;35.07;60.93;100549.41;5037282;28;65669;-37
2022/05/03 09:58:24;;;;;;;8.70;4.57;;;;;;;35.08;61.47;100558.41;5041558;28;70276;-38
2022/05/03 10:00:56;;;;;;;5.47;4.88;;;;;;;35.03;61.21;100570.06;5042538;28;66295;-37
2022/05/03 10:03:27;;;;;;;9.32;4.68;;;;;;;35.03;61.18;100577.41;5042695;28;69636;-38
2022/05/03 10:05:58;;;;;;;9.38;4.65;;;;;;;34.66;61.16;100518.16;5042821;28;66524;-38
2022/05/03 10:08:29;;;;;;;5.07;4.60;;;;;;;34.98;61.31;100571.91;5042470;28;70207;-37
2022/05/03 10:10:59;;;;;;;6.28;4.18;;;;;;;35.01;61.49;100585.84;5042464;28;65966;-37
2022/05/03 10:13:29;;;;;;;13.73;4.22;;;;;;;34.95;61.79;100586.84;5041918;28;69631;-37
2022/05/03 10:21:42;;;;;;;6.63;4.78;;;;;;;34.92;62.00;100599.09;5041479;28;66611;-39
2022/05/03 10:24:14;;;;;;;5.85;4.40;;;;;;;34.92;62.08;100612.72;5043132;28;69742;-38
2022/05/03 10:26:53;;;;;;;5.45;4.18;;;;;;;34.88;62.01;100605.28;5043092;28;65990;-38
2022/05/03 10:29:25;;;;;;;4.32;3.58;;;;;;;34.91;61.56;100610.25;5038727;28;69231;-41
2022/05/03 10:32:06;;;;;;;6.55;3.28;;;;;;;34.89;61.96;100640.47;5042331;28;66313;-38
2022/05/03 10:34:59;;;;;;;6.53;3.95;;;;;;;34.85;62.11;100665.75;5022461;28;70341;-37
2022/05/03 10:37:33;;;;;;;6.10;4.20;;;;;;;34.85;61.85;100671.22;5042010;28;66702;-38
2022/05/03 10:40:14;;;;;;;3.70;3.40;;;;;;;34.78;61.47;100676.03;5023777;28;70047;-38
2022/05/03 10:43:04;;;;;;;6.85;3.50;;;;;;;34.36;61.75;100619.31;5041541;28;66738;-38
2022/05/03 10:45:51;;;;;;;6.30;4.15;;;;;;;34.69;60.49;100672.94;5040797;28;69184;-37
2022/05/03 10:48:23;;;;;;;5.80;4.05;;;;;;;34.26;60.45;100607.19;5041382;28;66540;-37
2022/05/03 10:51:00;;;;;;;6.05;3.67;;;;;;;34.28;60.82;100617.00;5040031;28;69219;-38
2022/05/03 10:53:35;;;;;;;5.32;3.58;;;;;;;34.22;60.14;100622.38;5042466;28;66401;-39
2022/05/03 10:56:10;;;;;;;4.07;3.50;;;;;;;34.59;60.07;100714.44;5040944;28;70549;-43
2022/05/03 10:58:42;;;;;;;5.88;3.78;;;;;;;34.38;59.86;100694.25;5042356;28;66591;-38
2022/05/03 11:01:22;;;;;;;6.85;3.95;;;;;;;34.62;61.16;100748.53;5042461;28;70074;-46
2022/05/03 11:03:57;;;;;;;4.47;4.07;;;;;;;34.57;62.09;100746.56;5033332;28;66570;-37
2022/05/03 11:06:28;;;;;;;4.90;4.10;;;;;;;34.54;61.69;100752.47;5036668;28;70051;-38
2022/05/03 11:11:40;;;;;;;4.10;3.80;;;;;;;34.48;62.46;100769.81;5042272;28;69908;-40
2022/05/03 11:14:33;;;;;;;6.00;3.78;;;;;;;34.40;62.74;100757.44;5041209;28;63595;-39
2022/05/03 11:17:08;;;;;;;4.85;3.63;;;;;;;34.36;62.88;100771.81;5041827;28;70136;-40
2022/05/03 11:19:49;;;;;;;4.05;3.60;;;;;;;34.32;62.78;100786.97;5055661;28;66847;-38
2022/05/03 11:22:33;;;;;;;4.57;3.90;;;;;;;34.18;63.04;100795.44;5040082;28;70011;-38
2022/05/03 11:25:07;;;;;;;4.90;3.97;;;;;;;34.16;63.30;100805.78;5035068;28;66506;-38
2022/05/03 11:27:40;;;;;;;15.35;5.10;;;;;;;34.01;63.79;100819.06;5028370;28;70378;-37
2022/05/03 11:30:17;;;;;;;11.38;5.10;;;;;;;33.98;63.90;100839.41;5024145;28;66145;-37
2022/05/03 11:32:47;;;;;;;9.73;5.53;;;;;;;33.74;64.54;100819.63;5041824;28;69521;-38
2022/05/03 11:35:22;;;;;;;7.05;5.55;;;;;;;33.68;65.07;100808.88;5024778;28;66458;-38
2022/05/03 11:37:59;;;;;;;15.65;5.80;;;;;;;33.67;65.96;100827.09;5039880;28;69969;-39
2022/05/03 11:40:30;;;;;;;10.65;6.80;;;;;;;33.60;65.74;100818.25;5036091;28;66607;-38
2022/05/03 11:43:01;;;;;;;14.87;6.60;;;;;;;33.52;66.72;100810.44;5037381;28;70924;-39
2022/05/03 11:45:37;;;;;;;7.10;6.03;;;;;;;33.08;66.49;100739.38;4988616;28;65830;-39
2022/05/03 11:48:09;;;;;;;6.22;5.60;;;;;;;33.41;67.18;100814.03;5030036;28;69413;-39
2022/05/03 11:56:26;;;;;;;7.05;5.00;;;;;;;33.21;67.58;100819.81;5017416;28;64333;-39
2022/05/03 11:58:58;;;;;;;4.88;4.45;;;;;;;33.22;67.28;100816.03;5053426;28;71583;-38
2022/05/03 12:01:34;;;;;;;4.47;4.07;;;;;;;33.15;67.89;100806.13;5020697;28;64896;-40
2022/05/03 12:04:08;;;;;;;4.75;4.35;;;;;;;33.12;67.53;100789.44;5040210;28;68539;-41
2022/05/03 12:06:43;;;;;;;5.50;5.00;;;;;;;33.07;67.82;100809.22;5017501;28;65459;-38
2022/05/03 12:09:18;;;;;;;5.70;5.20;;;;;;;32.86;68.14;100774.44;5027169;28;69655;-39
2022/05/03 12:14:45;;;;;;;6.60;5.05;;;;;;;32.87;68.13;100801.34;5034482;28;70839;-46
2022/05/03 12:17:16;;;;;;;5.57;5.18;;;;;;;32.84;68.82;100820.84;5035218;28;66403;-41
2022/05/03 12:19:47;;;;;;;6.55;5.18;;;;;;;32.54;68.87;100809.25;5032726;28;69050;-40
2022/05/03 12:22:18;;;;;;;5.60;5.05;;;;;;;32.36;69.26;100800.09;5026713;28;65689;-38
2022/05/03 12:24:48;;;;;;;6.32;5.20;;;;;;;32.30;69.16;100825.44;5035263;28;70064;-37
2022/05/03 12:27:18;;;;;;;6.60;4.60;;;;;;;32.18;70.35;100805.56;5034261;28;65878;-38
2022/05/03 12:29:49;;;;;;;8.65;4.45;;;;;;;32.17;70.12;100793.06;5034581;28;70016;-38
2022/05/03 12:32:22;;;;;;;4.72;4.32;;;;;;;32.33;70.27;100818.72;5039317;28;65875;-38